sensor_id;sensor_type;location;lat;lon;timestamp;pressure;altitude;pressure_sealevel;temperature;humidity
12868;BME280;33517;49.866;8.320;2023-11-22T00:01:53;101169.41;;;6.19;86.66
12868;BME280;33517;49.866;8.320;2023-11-22T00:04:45;101171.06;;;6.09;87.27
12868;BME280;33517;49.866;8.320;2023-11-22T00:07:37;101170.09;;;5.99;87.09
12868;BME280;33517;49.866;8.320;2023-11-22T00:10:29;101165.00;;;5.87;87.81
12868;BME280;33517;49.866;8.320;2023-11-22T00:13:21;101177.28;;;5.74;87.26
12868;BME280;33517;49.866;8.320;2023-11-22T00:16:14;101173.94;;;5.60;87.47
12868;BME280;33517;49.866;8.320;2023-11-22T00:19:06;101191.09;;;5.52;87.64
12868;BME280;33517;49.866;8.320;2023-11-22T00:21:58;101191.69;;;5.44;87.83
12868;BME280;33517;49.866;8.320;2023-11-22T00:24:50;101198.31;;;5.37;88.54
12868;BME280;33517;49.866;8.320;2023-11-22T00:27:42;101198.50;;;5.34;88.24
12868;BME280;33517;49.866;8.320;2023-11-22T00:30:34;101201.00;;;5.36;88.55
12868;BME280;33517;49.866;8.320;2023-11-22T00:33:27;101204.59;;;5.46;88.98
12868;BME280;33517;49.866;8.320;2023-11-22T00:36:19;101205.59;;;5.56;88.74
12868;BME280;33517;49.866;8.320;2023-11-22T00:39:11;101207.19;;;5.70;88.49
12868;BME280;33517;49.866;8.320;2023-11-22T00:42:04;101207.03;;;5.84;88.18
12868;BME280;33517;49.866;8.320;2023-11-22T00:44:56;101207.84;;;5.95;88.57
12868;BME280;33517;49.866;8.320;2023-11-22T00:47:48;101216.91;;;6.02;88.58
12868;BME280;33517;49.866;8.320;2023-11-22T00:50:42;101211.94;;;6.10;88.01
12868;BME280;33517;49.866;8.320;2023-11-22T00:53:34;101209.81;;;6.15;87.88
12868;BME280;33517;49.866;8.320;2023-11-22T00:56:26;101207.91;;;6.17;87.56
12868;BME280;33517;49.866;8.320;2023-11-22T00:59:18;101217.31;;;6.20;87.57
12868;BME280;33517;49.866;8.320;2023-11-22T01:02:11;101209.56;;;6.18;86.86
12868;BME280;33517;49.866;8.320;2023-11-22T01:05:03;101216.69;;;6.16;87.36
12868;BME280;33517;49.866;8.320;2023-11-22T01:07:56;101218.81;;;6.11;87.20
12868;BME280;33517;49.866;8.320;2023-11-22T01:10:48;101226.28;;;6.05;86.58
12868;BME280;33517;49.866;8.320;2023-11-22T01:13:40;101231.47;;;5.94;86.61
12868;BME280;33517;49.866;8.320;2023-11-22T01:16:33;101235.34;;;5.77;86.79
12868;BME280;33517;49.866;8.320;2023-11-22T01:19:27;101237.53;;;5.59;86.56
12868;BME280;33517;49.866;8.320;2023-11-22T01:22:19;101244.00;;;5.43;87.14
12868;BME280;33517;49.866;8.320;2023-11-22T01:25:12;101242.59;;;5.26;86.87
12868;BME280;33517;49.866;8.320;2023-11-22T01:28:04;101250.59;;;5.12;87.17
12868;BME280;33517;49.866;8.320;2023-11-22T01:30:57;101252.19;;;5.02;87.55
12868;BME280;33517;49.866;8.320;2023-11-22T01:33:49;101256.38;;;4.92;88.29
12868;BME280;33517;49.866;8.320;2023-11-22T01:36:42;101259.63;;;4.83;88.16
12868;BME280;33517;49.866;8.320;2023-11-22T01:39:34;101255.81;;;4.76;88.58
12868;BME280;33517;49.866;8.320;2023-11-22T01:42:28;101259.69;;;4.71;88.34
12868;BME280;33517;49.866;8.320;2023-11-22T01:45:19;101265.31;;;4.64;88.28
12868;BME280;33517;49.866;8.320;2023-11-22T01:48:12;101272.50;;;4.61;88.81
12868;BME280;33517;49.866;8.320;2023-11-22T01:51:04;101279.78;;;4.56;88.81
12868;BME280;33517;49.866;8.320;2023-11-22T01:53:59;101286.16;;;4.52;88.92
12868;BME280;33517;49.866;8.320;2023-11-22T01:56:53;101285.66;;;4.47;88.61
12868;BME280;33517;49.866;8.320;2023-11-22T01:59:46;101276.47;;;4.41;89.05
12868;BME280;33517;49.866;8.320;2023-11-22T02:02:39;101282.63;;;4.40;88.88
12868;BME280;33517;49.866;8.320;2023-11-22T02:05:31;101281.16;;;4.36;89.07
12868;BME280;33517;49.866;8.320;2023-11-22T02:08:24;101283.13;;;4.33;88.73
12868;BME280;33517;49.866;8.320;2023-11-22T02:11:17;101293.03;;;4.28;89.11
12868;BME280;33517;49.866;8.320;2023-11-22T02:14:12;101295.31;;;4.20;89.22
12868;BME280;33517;49.866;8.320;2023-11-22T02:17:05;101298.44;;;4.12;89.58
12868;BME280;33517;49.866;8.320;2023-11-22T02:19:57;101302.72;;;4.13;89.87
12868;BME280;33517;49.866;8.320;2023-11-22T02:22:49;101303.75;;;4.11;89.35
12868;BME280;33517;49.866;8.320;2023-11-22T02:25:43;101312.59;;;4.08;89.66
12868;BME280;33517;49.866;8.320;2023-11-22T02:28:36;101299.59;;;4.08;89.72
12868;BME280;33517;49.866;8.320;2023-11-22T02:31:28;101312.72;;;4.07;89.50
12868;BME280;33517;49.866;8.320;2023-11-22T02:34:20;101325.09;;;4.03;89.69
12868;BME280;33517;49.866;8.320;2023-11-22T02:37:12;101326.03;;;4.02;89.78
12868;BME280;33517;49.866;8.320;2023-11-22T02:40:06;101326.34;;;3.98;89.76
12868;BME280;33517;49.866;8.320;2023-11-22T02:43:02;101313.41;;;3.96;90.25
12868;BME280;33517;49.866;8.320;2023-11-22T02:45:55;101324.78;;;3.95;90.16
12868;BME280;33517;49.866;8.320;2023-11-22T02:48:48;101330.38;;;3.89;90.03
12868;BME280;33517;49.866;8.320;2023-11-22T02:51:40;101311.50;;;3.86;89.98
12868;BME280;33517;49.866;8.320;2023-11-22T02:54:31;101298.72;;;3.83;90.36
12868;BME280;33517;49.866;8.320;2023-11-22T02:57:24;101307.44;;;3.82;90.10
12868;BME280;33517;49.866;8.320;2023-11-22T03:00:18;101296.41;;;3.78;90.10
12868;BME280;33517;49.866;8.320;2023-11-22T03:03:10;101308.78;;;3.74;89.78
12868;BME280;33517;49.866;8.320;2023-11-22T03:06:03;101314.19;;;3.71;89.99
12868;BME280;33517;49.866;8.320;2023-11-22T03:08:55;101321.25;;;3.69;90.04
12868;BME280;33517;49.866;8.320;2023-11-22T03:11:47;101330.00;;;3.68;90.04
12868;BME280;33517;49.866;8.320;2023-11-22T03:14:39;101333.53;;;3.67;90.06
12868;BME280;33517;49.866;8.320;2023-11-22T03:17:32;101343.94;;;3.67;89.97
12868;BME280;33517;49.866;8.320;2023-11-22T03:20:24;101346.84;;;3.63;89.91
12868;BME280;33517;49.866;8.320;2023-11-22T03:23:16;101357.44;;;3.60;90.15
12868;BME280;33517;49.866;8.320;2023-11-22T03:26:08;101362.09;;;3.55;90.36
12868;BME280;33517;49.866;8.320;2023-11-22T03:29:00;101363.34;;;3.49;90.20
12868;BME280;33517;49.866;8.320;2023-11-22T03:31:52;101358.41;;;3.45;90.37
12868;BME280;33517;49.866;8.320;2023-11-22T03:34:45;101361.31;;;3.40;90.49
12868;BME280;33517;49.866;8.320;2023-11-22T03:37:37;101353.59;;;3.39;90.56
12868;BME280;33517;49.866;8.320;2023-11-22T03:40:29;101359.72;;;3.38;90.77
12868;BME280;33517;49.866;8.320;2023-11-22T03:43:21;101365.94;;;3.35;90.85
12868;BME280;33517;49.866;8.320;2023-11-22T03:46:13;101376.56;;;3.32;90.55
12868;BME280;33517;49.866;8.320;2023-11-22T03:49:05;101379.34;;;3.29;91.02
12868;BME280;33517;49.866;8.320;2023-11-22T03:52:00;101382.97;;;3.27;90.99
12868;BME280;33517;49.866;8.320;2023-11-22T03:54:52;101392.63;;;3.25;90.82
12868;BME280;33517;49.866;8.320;2023-11-22T03:57:43;101399.69;;;3.23;91.36
12868;BME280;33517;49.866;8.320;2023-11-22T04:00:35;101395.72;;;3.17;90.88
12868;BME280;33517;49.866;8.320;2023-11-22T04:03:27;101407.97;;;3.15;91.11
12868;BME280;33517;49.866;8.320;2023-11-22T04:06:19;101414.19;;;3.13;90.59
12868;BME280;33517;49.866;8.320;2023-11-22T04:09:12;101421.97;;;3.13;91.29
12868;BME280;33517;49.866;8.320;2023-11-22T04:12:07;101426.53;;;3.09;91.07
12868;BME280;33517;49.866;8.320;2023-11-22T04:14:59;101436.09;;;3.09;91.12
12868;BME280;33517;49.866;8.320;2023-11-22T04:17:51;101442.88;;;3.11;91.02
12868;BME280;33517;49.866;8.320;2023-11-22T04:20:45;101443.81;;;3.10;90.91
12868;BME280;33517;49.866;8.320;2023-11-22T04:23:38;101449.94;;;3.09;91.09
12868;BME280;33517;49.866;8.320;2023-11-22T04:26:31;101452.44;;;3.11;90.64
12868;BME280;33517;49.866;8.320;2023-11-22T04:29:23;101451.59;;;3.10;91.00
12868;BME280;33517;49.866;8.320;2023-11-22T04:32:15;101453.44;;;3.08;90.75
12868;BME280;33517;49.866;8.320;2023-11-22T04:35:08;101444.19;;;3.04;90.98
12868;BME280;33517;49.866;8.320;2023-11-22T04:38:00;101455.59;;;3.02;90.41
12868;BME280;33517;49.866;8.320;2023-11-22T04:40:52;101446.22;;;2.99;90.48
12868;BME280;33517;49.866;8.320;2023-11-22T04:43:45;101451.41;;;2.99;90.83
12868;BME280;33517;49.866;8.320;2023-11-22T04:46:37;101456.06;;;2.94;91.19
12868;BME280;33517;49.866;8.320;2023-11-22T04:49:29;101459.66;;;2.92;91.09
12868;BME280;33517;49.866;8.320;2023-11-22T04:52:22;101465.81;;;2.91;91.17
12868;BME280;33517;49.866;8.320;2023-11-22T04:55:14;101462.47;;;2.89;91.75
12868;BME280;33517;49.866;8.320;2023-11-22T04:58:06;101465.22;;;2.86;91.37
12868;BME280;33517;49.866;8.320;2023-11-22T05:00:59;101475.91;;;2.81;90.90
12868;BME280;33517;49.866;8.320;2023-11-22T05:03:52;101469.22;;;2.77;91.92
12868;BME280;33517;49.866;8.320;2023-11-22T05:06:44;101477.16;;;2.74;91.54
12868;BME280;33517;49.866;8.320;2023-11-22T05:09:36;101474.75;;;2.71;91.17
12868;BME280;33517;49.866;8.320;2023-11-22T05:12:28;101489.59;;;2.69;91.36
12868;BME280;33517;49.866;8.320;2023-11-22T05:15:20;101486.16;;;2.68;92.29
12868;BME280;33517;49.866;8.320;2023-11-22T05:18:14;101488.66;;;2.70;92.21
12868;BME280;33517;49.866;8.320;2023-11-22T05:21:05;101483.41;;;2.71;92.43
12868;BME280;33517;49.866;8.320;2023-11-22T05:23:58;101492.94;;;2.71;92.60
12868;BME280;33517;49.866;8.320;2023-11-22T05:26:50;101496.47;;;2.70;92.53
12868;BME280;33517;49.866;8.320;2023-11-22T05:29:42;101500.00;;;2.69;92.67
12868;BME280;33517;49.866;8.320;2023-11-22T05:32:34;101497.41;;;2.69;92.63
12868;BME280;33517;49.866;8.320;2023-11-22T05:35:27;101501.66;;;2.70;92.53
12868;BME280;33517;49.866;8.320;2023-11-22T05:38:19;101503.44;;;2.69;92.50
12868;BME280;33517;49.866;8.320;2023-11-22T05:41:11;101513.19;;;2.66;92.80
12868;BME280;33517;49.866;8.320;2023-11-22T05:44:03;101516.88;;;2.62;93.27
12868;BME280;33517;49.866;8.320;2023-11-22T05:46:56;101527.50;;;2.57;92.77
12868;BME280;33517;49.866;8.320;2023-11-22T05:49:48;101521.75;;;2.52;93.00
12868;BME280;33517;49.866;8.320;2023-11-22T05:52:41;101515.16;;;2.47;93.20
12868;BME280;33517;49.866;8.320;2023-11-22T05:55:34;101525.53;;;2.47;93.12
12868;BME280;33517;49.866;8.320;2023-11-22T05:58:28;101531.63;;;2.46;93.05
12868;BME280;33517;49.866;8.320;2023-11-22T06:01:20;101545.13;;;2.52;93.55
12868;BME280;33517;49.866;8.320;2023-11-22T06:04:12;101556.84;;;2.44;93.29
12868;BME280;33517;49.866;8.320;2023-11-22T06:07:04;101565.75;;;2.40;92.87
12868;BME280;33517;49.866;8.320;2023-11-22T06:09:57;101568.53;;;2.37;93.16
12868;BME280;33517;49.866;8.320;2023-11-22T06:12:49;101563.75;;;2.29;93.29
12868;BME280;33517;49.866;8.320;2023-11-22T06:15:41;101567.69;;;2.21;92.94
12868;BME280;33517;49.866;8.320;2023-11-22T06:18:33;101567.84;;;2.18;93.33
12868;BME280;33517;49.866;8.320;2023-11-22T06:21:30;101568.94;;;2.14;93.46
12868;BME280;33517;49.866;8.320;2023-11-22T06:24:22;101572.03;;;2.05;93.13
12868;BME280;33517;49.866;8.320;2023-11-22T06:27:15;101574.13;;;1.98;93.13
12868;BME280;33517;49.866;8.320;2023-11-22T06:30:07;101592.28;;;1.98;93.70
12868;BME280;33517;49.866;8.320;2023-11-22T06:33:00;101612.06;;;2.01;93.45
12868;BME280;33517;49.866;8.320;2023-11-22T06:35:52;101618.00;;;2.03;93.95
12868;BME280;33517;49.866;8.320;2023-11-22T06:38:44;101622.13;;;2.07;94.13
12868;BME280;33517;49.866;8.320;2023-11-22T06:41:37;101629.63;;;2.11;94.27
12868;BME280;33517;49.866;8.320;2023-11-22T06:44:30;101619.03;;;2.16;94.11
12868;BME280;33517;49.866;8.320;2023-11-22T06:47:22;101613.91;;;2.14;93.92
12868;BME280;33517;49.866;8.320;2023-11-22T06:50:14;101617.41;;;2.13;93.30
12868;BME280;33517;49.866;8.320;2023-11-22T06:53:06;101616.50;;;2.14;93.64
12868;BME280;33517;49.866;8.320;2023-11-22T06:55:58;101618.00;;;2.18;93.55
12868;BME280;33517;49.866;8.320;2023-11-22T06:58:51;101612.00;;;2.18;93.49
12868;BME280;33517;49.866;8.320;2023-11-22T07:01:45;101614.59;;;2.18;93.52
12868;BME280;33517;49.866;8.320;2023-11-22T07:04:37;101618.75;;;2.20;93.80
12868;BME280;33517;49.866;8.320;2023-11-22T07:07:30;101632.50;;;2.22;93.68
12868;BME280;33517;49.866;8.320;2023-11-22T07:10:22;101647.09;;;2.25;93.25
12868;BME280;33517;49.866;8.320;2023-11-22T07:13:14;101651.94;;;2.31;93.05
12868;BME280;33517;49.866;8.320;2023-11-22T07:16:06;101640.47;;;2.35;93.26
12868;BME280;33517;49.866;8.320;2023-11-22T07:19:00;101643.34;;;2.46;92.97
12868;BME280;33517;49.866;8.320;2023-11-22T07:21:53;101650.47;;;2.58;92.88
12868;BME280;33517;49.866;8.320;2023-11-22T07:24:46;101658.16;;;2.75;92.96
12868;BME280;33517;49.866;8.320;2023-11-22T07:27:38;101652.34;;;2.86;92.82
12868;BME280;33517;49.866;8.320;2023-11-22T07:30:30;101661.13;;;2.99;91.46
12868;BME280;33517;49.866;8.320;2023-11-22T07:33:24;101650.38;;;3.20;91.62
12868;BME280;33517;49.866;8.320;2023-11-22T07:36:18;101651.63;;;3.29;90.92
12868;BME280;33517;49.866;8.320;2023-11-22T07:39:11;101659.44;;;3.43;91.09
12868;BME280;33517;49.866;8.320;2023-11-22T07:42:03;101669.34;;;3.66;90.34
12868;BME280;33517;49.866;8.320;2023-11-22T07:44:58;101660.19;;;3.74;89.71
12868;BME280;33517;49.866;8.320;2023-11-22T07:47:50;101658.13;;;3.65;89.57
12868;BME280;33517;49.866;8.320;2023-11-22T07:50:43;101661.47;;;3.38;89.40
12868;BME280;33517;49.866;8.320;2023-11-22T07:53:37;101645.66;;;3.27;89.30
12868;BME280;33517;49.866;8.320;2023-11-22T07:56:30;101644.81;;;3.26;88.61
12868;BME280;33517;49.866;8.320;2023-11-22T07:59:23;101656.03;;;3.42;88.60
12868;BME280;33517;49.866;8.320;2023-11-22T08:02:15;101662.03;;;4.01;88.07
12868;BME280;33517;49.866;8.320;2023-11-22T08:05:09;101647.06;;;4.04;87.57
12868;BME280;33517;49.866;8.320;2023-11-22T08:08:05;101649.41;;;4.23;87.43
12868;BME280;33517;49.866;8.320;2023-11-22T08:10:59;101646.81;;;4.23;86.31
12868;BME280;33517;49.866;8.320;2023-11-22T08:13:52;101642.03;;;4.29;85.71
12868;BME280;33517;49.866;8.320;2023-11-22T08:16:45;101643.25;;;4.38;85.64
12868;BME280;33517;49.866;8.320;2023-11-22T08:19:37;101652.59;;;4.68;85.45
12868;BME280;33517;49.866;8.320;2023-11-22T08:22:30;101657.19;;;4.78;84.35
12868;BME280;33517;49.866;8.320;2023-11-22T08:25:23;101652.69;;;5.20;84.37
12868;BME280;33517;49.866;8.320;2023-11-22T08:28:16;101664.09;;;5.44;82.31
12868;BME280;33517;49.866;8.320;2023-11-22T08:31:08;101667.03;;;5.52;81.55
12868;BME280;33517;49.866;8.320;2023-11-22T08:34:00;101679.13;;;5.53;80.93
12868;BME280;33517;49.866;8.320;2023-11-22T08:36:53;101681.97;;;5.50;79.90
12868;BME280;33517;49.866;8.320;2023-11-22T08:39:45;101682.25;;;5.98;78.94
12868;BME280;33517;49.866;8.320;2023-11-22T08:42:37;101688.22;;;5.87;78.80
12868;BME280;33517;49.866;8.320;2023-11-22T08:45:32;101689.63;;;5.79;78.13
12868;BME280;33517;49.866;8.320;2023-11-22T08:48:25;101683.84;;;6.49;76.01
12868;BME280;33517;49.866;8.320;2023-11-22T08:51:17;101688.44;;;6.94;75.79
12868;BME280;33517;49.866;8.320;2023-11-22T08:54:09;101684.13;;;7.06;74.75
12868;BME280;33517;49.866;8.320;2023-11-22T08:57:01;101686.44;;;6.98;73.94
12868;BME280;33517;49.866;8.320;2023-11-22T08:59:53;101691.25;;;6.68;73.69
12868;BME280;33517;49.866;8.320;2023-11-22T09:02:46;101694.06;;;6.16;73.76
12868;BME280;33517;49.866;8.320;2023-11-22T09:05:38;101703.81;;;7.22;70.84
12868;BME280;33517;49.866;8.320;2023-11-22T09:08:30;101695.22;;;6.61;71.46
12868;BME280;33517;49.866;8.320;2023-11-22T09:11:22;101701.16;;;6.26;72.77
12868;BME280;33517;49.866;8.320;2023-11-22T09:14:15;101696.16;;;6.23;72.70
12868;BME280;33517;49.866;8.320;2023-11-22T09:17:08;101696.13;;;6.11;71.78
12868;BME280;33517;49.866;8.320;2023-11-22T09:20:01;101684.72;;;6.24;71.84
12868;BME280;33517;49.866;8.320;2023-11-22T09:22:54;101686.72;;;6.82;70.56
12868;BME280;33517;49.866;8.320;2023-11-22T09:25:46;101685.03;;;7.05;68.09
12868;BME280;33517;49.866;8.320;2023-11-22T09:28:39;101696.69;;;6.77;68.16
12868;BME280;33517;49.866;8.320;2023-11-22T09:31:31;101695.03;;;6.51;66.98
12868;BME280;33517;49.866;8.320;2023-11-22T09:34:23;101690.03;;;6.35;67.25
12868;BME280;33517;49.866;8.320;2023-11-22T09:37:16;101696.13;;;6.48;67.96
12868;BME280;33517;49.866;8.320;2023-11-22T09:40:09;101697.47;;;6.41;67.22
12868;BME280;33517;49.866;8.320;2023-11-22T09:43:02;101702.19;;;6.24;66.72
12868;BME280;33517;49.866;8.320;2023-11-22T09:45:54;101716.94;;;6.00;66.92
12868;BME280;33517;49.866;8.320;2023-11-22T09:48:47;101725.63;;;6.13;67.22
12868;BME280;33517;49.866;8.320;2023-11-22T09:51:42;101727.19;;;6.03;67.07
12868;BME280;33517;49.866;8.320;2023-11-22T09:54:37;101734.94;;;6.04;67.35
12868;BME280;33517;49.866;8.320;2023-11-22T09:57:32;101737.31;;;5.95;66.69
12868;BME280;33517;49.866;8.320;2023-11-22T10:00:26;101741.69;;;5.94;67.27
12868;BME280;33517;49.866;8.320;2023-11-22T10:03:21;101739.19;;;5.93;66.24
12868;BME280;33517;49.866;8.320;2023-11-22T10:06:14;101741.50;;;6.10;67.08
12868;BME280;33517;49.866;8.320;2023-11-22T10:09:07;101740.97;;;6.30;66.60
12868;BME280;33517;49.866;8.320;2023-11-22T10:12:03;101749.03;;;6.39;64.99
12868;BME280;33517;49.866;8.320;2023-11-22T10:14:55;101747.28;;;6.27;64.51
12868;BME280;33517;49.866;8.320;2023-11-22T10:17:53;101741.50;;;6.10;65.00
12868;BME280;33517;49.866;8.320;2023-11-22T10:20:48;101733.88;;;6.19;63.93
12868;BME280;33517;49.866;8.320;2023-11-22T10:23:40;101749.25;;;6.11;63.48
12868;BME280;33517;49.866;8.320;2023-11-22T10:26:33;101754.91;;;6.18;64.91
12868;BME280;33517;49.866;8.320;2023-11-22T10:29:28;101754.88;;;6.05;65.18
12868;BME280;33517;49.866;8.320;2023-11-22T10:32:19;101764.91;;;5.99;64.77
12868;BME280;33517;49.866;8.320;2023-11-22T10:35:12;101760.22;;;6.04;65.58
12868;BME280;33517;49.866;8.320;2023-11-22T10:38:07;101741.19;;;6.02;65.41
12868;BME280;33517;49.866;8.320;2023-11-22T10:40:59;101748.28;;;5.87;63.34
12868;BME280;33517;49.866;8.320;2023-11-22T10:43:52;101751.47;;;5.78;64.97
12868;BME280;33517;49.866;8.320;2023-11-22T10:46:47;101748.16;;;5.49;63.29
12868;BME280;33517;49.866;8.320;2023-11-22T10:49:41;101745.97;;;5.43;63.07
12868;BME280;33517;49.866;8.320;2023-11-22T10:52:35;101759.44;;;5.50;63.76
12868;BME280;33517;49.866;8.320;2023-11-22T10:55:31;101770.47;;;5.68;63.92
12868;BME280;33517;49.866;8.320;2023-11-22T10:58:23;101778.69;;;5.88;64.28
12868;BME280;33517;49.866;8.320;2023-11-22T11:01:16;101786.75;;;5.98;64.22
12868;BME280;33517;49.866;8.320;2023-11-22T11:04:19;101784.13;;;5.85;65.02
12868;BME280;33517;49.866;8.320;2023-11-22T11:07:12;101782.25;;;5.87;65.14
12868;BME280;33517;49.866;8.320;2023-11-22T11:10:08;101790.19;;;5.98;64.29
12868;BME280;33517;49.866;8.320;2023-11-22T11:13:02;101783.72;;;6.04;63.95
12868;BME280;33517;49.866;8.320;2023-11-22T11:15:54;101789.06;;;6.02;63.32
12868;BME280;33517;49.866;8.320;2023-11-22T11:18:46;101786.84;;;5.96;63.58
12868;BME280;33517;49.866;8.320;2023-11-22T11:21:40;101794.16;;;5.91;64.80
12868;BME280;33517;49.866;8.320;2023-11-22T11:24:38;101801.06;;;5.92;63.99
12868;BME280;33517;49.866;8.320;2023-11-22T11:27:33;101802.09;;;5.90;63.79
12868;BME280;33517;49.866;8.320;2023-11-22T11:30:47;101810.72;;;5.78;63.28
12868;BME280;33517;49.866;8.320;2023-11-22T11:33:55;101796.69;;;5.79;62.83
12868;BME280;33517;49.866;8.320;2023-11-22T11:36:52;101806.78;;;5.85;63.29
12868;BME280;33517;49.866;8.320;2023-11-22T11:39:45;101812.13;;;5.96;62.26
12868;BME280;33517;49.866;8.320;2023-11-22T11:42:39;101820.91;;;5.95;62.25
12868;BME280;33517;49.866;8.320;2023-11-22T11:45:36;101821.16;;;6.04;62.31
12868;BME280;33517;49.866;8.320;2023-11-22T11:48:29;101815.53;;;6.10;62.30
12868;BME280;33517;49.866;8.320;2023-11-22T11:51:22;101808.19;;;6.03;62.21
12868;BME280;33517;49.866;8.320;2023-11-22T11:54:16;101817.97;;;5.99;62.25
12868;BME280;33517;49.866;8.320;2023-11-22T11:57:08;101813.72;;;6.11;62.38
12868;BME280;33517;49.866;8.320;2023-11-22T12:00:00;101806.94;;;6.21;62.54
12868;BME280;33517;49.866;8.320;2023-11-22T12:02:53;101802.34;;;6.24;62.81
12868;BME280;33517;49.866;8.320;2023-11-22T12:05:44;101785.84;;;6.36;61.06
12868;BME280;33517;49.866;8.320;2023-11-22T12:08:36;101792.75;;;6.25;60.22
12868;BME280;33517;49.866;8.320;2023-11-22T12:11:30;101785.84;;;6.36;59.91
12868;BME280;33517;49.866;8.320;2023-11-22T12:14:23;101785.34;;;6.31;58.79
12868;BME280;33517;49.866;8.320;2023-11-22T12:17:16;101782.72;;;6.31;59.92
12868;BME280;33517;49.866;8.320;2023-11-22T12:20:10;101776.94;;;6.26;60.22
12868;BME280;33517;49.866;8.320;2023-11-22T12:23:02;101764.69;;;6.65;57.34
12868;BME280;33517;49.866;8.320;2023-11-22T12:25:55;101758.88;;;8.03;56.73
12868;BME280;33517;49.866;8.320;2023-11-22T12:28:49;101750.13;;;9.35;54.27
12868;BME280;33517;49.866;8.320;2023-11-22T12:31:45;101746.25;;;10.53;53.72
12868;BME280;33517;49.866;8.320;2023-11-22T12:34:37;101742.81;;;10.92;50.08
12868;BME280;33517;49.866;8.320;2023-11-22T12:37:30;101751.03;;;11.37;50.74
12868;BME280;33517;49.866;8.320;2023-11-22T12:40:22;101757.88;;;11.87;49.66
12868;BME280;33517;49.866;8.320;2023-11-22T12:43:14;101754.81;;;11.54;49.40
12868;BME280;33517;49.866;8.320;2023-11-22T12:46:08;101740.81;;;11.82;48.60
12868;BME280;33517;49.866;8.320;2023-11-22T12:49:06;101769.94;;;12.09;48.57
12868;BME280;33517;49.866;8.320;2023-11-22T12:51:58;101756.16;;;12.25;46.94
12868;BME280;33517;49.866;8.320;2023-11-22T12:54:50;101765.34;;;12.21;48.60
12868;BME280;33517;49.866;8.320;2023-11-22T12:57:42;101760.22;;;11.62;48.20
12868;BME280;33517;49.866;8.320;2023-11-22T13:00:35;101755.25;;;11.68;47.80
12868;BME280;33517;49.866;8.320;2023-11-22T13:03:28;101765.06;;;12.14;47.18
12868;BME280;33517;49.866;8.320;2023-11-22T13:06:20;101778.66;;;12.19;47.44
12868;BME280;33517;49.866;8.320;2023-11-22T13:09:15;101788.25;;;12.20;47.14
12868;BME280;33517;49.866;8.320;2023-11-22T13:12:07;101788.53;;;11.88;47.63
12868;BME280;33517;49.866;8.320;2023-11-22T13:14:59;101782.50;;;11.29;46.05
12868;BME280;33517;49.866;8.320;2023-11-22T13:17:51;101760.84;;;11.06;47.86
12868;BME280;33517;49.866;8.320;2023-11-22T13:20:47;101751.75;;;11.58;47.55
12868;BME280;33517;49.866;8.320;2023-11-22T13:23:39;101748.84;;;11.99;46.50
12868;BME280;33517;49.866;8.320;2023-11-22T13:26:31;101742.00;;;12.16;47.05
12868;BME280;33517;49.866;8.320;2023-11-22T13:29:24;101726.63;;;11.92;47.15
12868;BME280;33517;49.866;8.320;2023-11-22T13:32:16;101718.41;;;10.90;47.64
12868;BME280;33517;49.866;8.320;2023-11-22T13:35:09;101713.25;;;9.57;47.34
12868;BME280;33517;49.866;8.320;2023-11-22T13:38:06;101722.00;;;8.50;48.74
12868;BME280;33517;49.866;8.320;2023-11-22T13:41:01;101719.88;;;7.98;50.98
12868;BME280;33517;49.866;8.320;2023-11-22T13:43:53;101722.19;;;7.68;50.48
12868;BME280;33517;49.866;8.320;2023-11-22T13:46:46;101717.19;;;7.30;52.27
12868;BME280;33517;49.866;8.320;2023-11-22T13:49:39;101714.00;;;6.91;51.69
12868;BME280;33517;49.866;8.320;2023-11-22T13:52:33;101704.22;;;6.69;52.81
12868;BME280;33517;49.866;8.320;2023-11-22T13:55:26;101719.84;;;6.45;53.67
12868;BME280;33517;49.866;8.320;2023-11-22T13:58:18;101724.91;;;6.23;53.87
12868;BME280;33517;49.866;8.320;2023-11-22T14:01:10;101719.25;;;6.17;54.50
12868;BME280;33517;49.866;8.320;2023-11-22T14:04:07;101726.66;;;5.98;54.93
12868;BME280;33517;49.866;8.320;2023-11-22T14:06:59;101726.31;;;5.90;55.06
12868;BME280;33517;49.866;8.320;2023-11-22T14:09:51;101736.25;;;5.85;55.40
12868;BME280;33517;49.866;8.320;2023-11-22T14:12:45;101755.94;;;5.76;55.42
12868;BME280;33517;49.866;8.320;2023-11-22T14:15:37;101771.09;;;5.71;55.36
12868;BME280;33517;49.866;8.320;2023-11-22T14:18:29;101750.59;;;5.65;55.56
12868;BME280;33517;49.866;8.320;2023-11-22T14:21:21;101748.66;;;5.42;56.08
12868;BME280;33517;49.866;8.320;2023-11-22T14:24:15;101737.41;;;5.15;57.23
12868;BME280;33517;49.866;8.320;2023-11-22T14:27:08;101724.66;;;4.96;58.00
12868;BME280;33517;49.866;8.320;2023-11-22T14:30:02;101726.59;;;4.66;60.13
12868;BME280;33517;49.866;8.320;2023-11-22T14:32:57;101726.97;;;4.60;60.66
12868;BME280;33517;49.866;8.320;2023-11-22T14:35:50;101718.19;;;4.75;59.82
12868;BME280;33517;49.866;8.320;2023-11-22T14:38:42;101716.06;;;4.82;59.46
12868;BME280;33517;49.866;8.320;2023-11-22T14:41:34;101717.06;;;4.79;59.87
12868;BME280;33517;49.866;8.320;2023-11-22T14:44:26;101715.94;;;4.83;59.63
12868;BME280;33517;49.866;8.320;2023-11-22T14:47:20;101719.03;;;4.90;59.70
12868;BME280;33517;49.866;8.320;2023-11-22T14:50:14;101720.25;;;4.84;59.65
12868;BME280;33517;49.866;8.320;2023-11-22T14:53:06;101733.41;;;4.68;60.23
12868;BME280;33517;49.866;8.320;2023-11-22T14:55:58;101734.88;;;4.58;60.21
12868;BME280;33517;49.866;8.320;2023-11-22T14:58:51;101745.22;;;4.46;61.12
12868;BME280;33517;49.866;8.320;2023-11-22T15:01:44;101752.13;;;4.19;62.17
12868;BME280;33517;49.866;8.320;2023-11-22T15:04:39;101754.88;;;4.02;62.71
12868;BME280;33517;49.866;8.320;2023-11-22T15:07:32;101758.31;;;4.02;62.16
12868;BME280;33517;49.866;8.320;2023-11-22T15:10:26;101757.56;;;4.00;62.26
12868;BME280;33517;49.866;8.320;2023-11-22T15:13:18;101759.03;;;3.90;62.89
12868;BME280;33517;49.866;8.320;2023-11-22T15:16:10;101766.16;;;3.87;62.67